Time;durP1;ratioP1;P1;durP2;ratioP2;P2;SDS_P1;SDS_P2;PMS_P1;PMS_P2;Temp;Humidity;BMP_temperature;BMP_pressure;BME280_temperature;BME280_humidity;BME280_pressure;Samples;Min_cycle;Max_cycle;Signal;HPM_P1;HPM_P2
2022/06/15 00:00:11;;;;;;;0.30;0.30;;;;;;;;;;1841885;77;26212;-54
2022/06/15 00:02:38;;;;;;;0.30;0.30;;;;;;;;;;1840198;77;26335;-54
2022/06/15 00:05:06;;;;;;;0.50;0.50;;;;;;;;;;1854062;77;26399;-53
2022/06/15 00:07:33;;;;;;;0.45;0.45;;;;;;;;;;1847790;77;26307;-54
2022/06/15 00:10:00;;;;;;;0.37;0.37;;;;;;;;;;1857270;77;26263;-55
2022/06/15 00:12:28;;;;;;;0.40;0.40;;;;;;;;;;1856562;77;26323;-53
2022/06/15 00:14:55;;;;;;;0.42;0.42;;;;;;;;;;1849653;76;26368;-57
2022/06/15 00:17:23;;;;;;;0.40;0.40;;;;;;;;;;1857091;76;26786;-57
2022/06/15 00:19:50;;;;;;;0.40;0.40;;;;;;;;;;1854492;77;26715;-56
2022/06/15 00:22:17;;;;;;;0.40;0.40;;;;;;;;;;1845312;77;27137;-55
2022/06/15 00:24:45;;;;;;;0.45;0.45;;;;;;;;;;1849009;77;26267;-54
2022/06/15 00:27:12;;;;;;;0.50;0.50;;;;;;;;;;1847011;77;26343;-56
2022/06/15 00:29:39;;;;;;;0.50;0.50;;;;;;;;;;1848695;77;26727;-55
2022/06/15 00:32:07;;;;;;;0.50;0.50;;;;;;;;;;1845125;76;26663;-53
2022/06/15 00:34:34;;;;;;;0.50;0.50;;;;;;;;;;1846059;77;26294;-54
2022/06/15 00:37:02;;;;;;;0.40;0.40;;;;;;;;;;1835093;77;26765;-53
2022/06/15 00:39:29;;;;;;;0.40;0.40;;;;;;;;;;1838916;77;26298;-54
2022/06/15 00:41:56;;;;;;;0.50;0.50;;;;;;;;;;1815633;77;26293;-56
2022/06/15 00:44:25;;;;;;;0.40;0.40;;;;;;;;;;1841369;76;26830;-57
2022/06/15 00:46:54;;;;;;;0.40;0.40;;;;;;;;;;1826786;77;26964;-55
2022/06/15 00:49:23;;;;;;;0.30;0.30;;;;;;;;;;1834747;76;26701;-56
2022/06/15 00:51:52;;;;;;;0.30;0.30;;;;;;;;;;1844311;77;26897;-53
2022/06/15 00:54:19;;;;;;;0.30;0.30;;;;;;;;;;1841777;77;26330;-55
2022/06/15 00:56:46;;;;;;;0.40;0.40;;;;;;;;;;1842878;77;26745;-57
2022/06/15 00:59:18;;;;;;;0.47;0.47;;;;;;;;;;1842816;77;26322;-54
2022/06/15 01:01:47;;;;;;;0.40;0.40;;;;;;;;;;1829711;77;26276;-55
2022/06/15 01:04:15;;;;;;;0.42;0.42;;;;;;;;;;1848483;77;26264;-54
2022/06/15 01:06:44;;;;;;;0.37;0.37;;;;;;;;;;1845856;77;26322;-56
2022/06/15 01:09:15;;;;;;;0.40;0.40;;;;;;;;;;1847261;77;26288;-57
2022/06/15 01:11:59;;;;;;;0.40;0.40;;;;;;;;;;1849020;77;26797;-55
2022/06/15 01:14:40;;;;;;;0.50;0.50;;;;;;;;;;1848849;77;26358;-56
2022/06/15 01:17:09;;;;;;;0.40;0.40;;;;;;;;;;1843873;77;26350;-56
2022/06/15 01:19:38;;;;;;;0.40;0.40;;;;;;;;;;1834660;77;26286;-55
2022/06/15 01:22:22;;;;;;;0.47;0.47;;;;;;;;;;1847024;77;26349;-55
2022/06/15 01:24:52;;;;;;;0.35;0.35;;;;;;;;;;1858092;77;26272;-53
2022/06/15 01:27:27;;;;;;;0.40;0.40;;;;;;;;;;1845852;77;26283;-54
2022/06/15 01:30:01;;;;;;;0.30;0.30;;;;;;;;;;1856631;77;26330;-52
2022/06/15 01:32:39;;;;;;;0.40;0.40;;;;;;;;;;1854521;76;26326;-54
2022/06/15 01:35:25;;;;;;;0.50;0.50;;;;;;;;;;1841691;77;26271;-54
2022/06/15 01:37:54;;;;;;;0.40;0.40;;;;;;;;;;1835791;77;26355;-56
2022/06/15 01:40:22;;;;;;;0.50;0.50;;;;;;;;;;1854305;77;26328;-56
2022/06/15 01:42:51;;;;;;;0.45;0.45;;;;;;;;;;1855356;77;26334;-54
2022/06/15 01:45:20;;;;;;;0.60;0.60;;;;;;;;;;1855685;77;26338;-58
2022/06/15 01:47:49;;;;;;;0.50;0.50;;;;;;;;;;1857253;76;26338;-54
2022/06/15 01:50:27;;;;;;;0.40;0.40;;;;;;;;;;1851248;77;26263;-55
2022/06/15 01:52:56;;;;;;;0.40;0.40;;;;;;;;;;1838971;77;26264;-52
2022/06/15 01:55:28;;;;;;;0.35;0.35;;;;;;;;;;1854436;77;26299;-56
2022/06/15 01:57:56;;;;;;;0.47;0.47;;;;;;;;;;1853818;77;26369;-56
2022/06/15 02:00:23;;;;;;;0.85;0.50;;;;;;;;;;1843215;77;26240;-56
2022/06/15 02:02:58;;;;;;;0.45;0.45;;;;;;;;;;1841674;77;26267;-56
2022/06/15 02:05:30;;;;;;;0.42;0.42;;;;;;;;;;1852679;77;26311;-55
2022/06/15 02:08:02;;;;;;;0.42;0.42;;;;;;;;;;1844036;77;26942;-53
2022/06/15 02:10:30;;;;;;;0.40;0.40;;;;;;;;;;1831377;77;26260;-56
2022/06/15 02:12:59;;;;;;;0.40;0.40;;;;;;;;;;1857347;77;26287;-56
2022/06/15 02:15:28;;;;;;;0.50;0.50;;;;;;;;;;1856607;77;26822;-57
2022/06/15 02:17:57;;;;;;;0.40;0.40;;;;;;;;;;1853073;77;26273;-56
2022/06/15 02:20:31;;;;;;;0.50;0.50;;;;;;;;;;1854551;77;26348;-55
2022/06/15 02:22:56;;;;;;;0.30;0.30;;;;;;;;;;1855390;77;26441;-52
2022/06/15 02:25:25;;;;;;;0.40;0.40;;;;;;;;;;1856966;77;26530;-55
2022/06/15 02:27:53;;;;;;;0.40;0.40;;;;;;;;;;1855230;77;26872;-56
2022/06/15 02:30:22;;;;;;;0.50;0.50;;;;;;;;;;1834967;77;26284;-57
2022/06/15 02:32:50;;;;;;;0.40;0.40;;;;;;;;;;1855541;77;26334;-57
2022/06/15 02:35:20;;;;;;;0.40;0.40;;;;;;;;;;1837465;77;26756;-54
2022/06/15 02:37:49;;;;;;;0.50;0.50;;;;;;;;;;1853860;77;26314;-55
2022/06/15 02:40:18;;;;;;;0.50;0.50;;;;;;;;;;1842703;77;26341;-56
2022/06/15 02:42:46;;;;;;;0.40;0.40;;;;;;;;;;1838417;77;26247;-53
2022/06/15 02:45:28;;;;;;;0.40;0.40;;;;;;;;;;1847195;77;26643;-54
2022/06/15 02:47:56;;;;;;;0.80;0.50;;;;;;;;;;1833335;76;26267;-56
2022/06/15 02:50:24;;;;;;;0.40;0.40;;;;;;;;;;1822177;78;26732;-57
2022/06/15 02:52:56;;;;;;;0.40;0.40;;;;;;;;;;1825672;78;26396;-55
2022/06/15 02:55:24;;;;;;;0.40;0.40;;;;;;;;;;1809504;77;26294;-56
2022/06/15 02:58:05;;;;;;;0.40;0.40;;;;;;;;;;1816055;78;27009;-54
2022/06/15 03:00:33;;;;;;;0.40;0.40;;;;;;;;;;1829045;77;26271;-55
2022/06/15 03:03:00;;;;;;;0.50;0.50;;;;;;;;;;1814678;78;26735;-52
2022/06/15 03:05:27;;;;;;;0.42;0.42;;;;;;;;;;1817671;77;26192;-54
2022/06/15 03:07:55;;;;;;;0.30;0.30;;;;;;;;;;1825582;78;26464;-54
2022/06/15 03:10:23;;;;;;;0.40;0.40;;;;;;;;;;1827616;77;26742;-56
2022/06/15 03:12:50;;;;;;;0.40;0.40;;;;;;;;;;1813502;79;26268;-54
2022/06/15 03:15:17;;;;;;;0.40;0.40;;;;;;;;;;1816493;78;26817;-53
2022/06/15 03:17:45;;;;;;;0.40;0.40;;;;;;;;;;1816647;78;26342;-55
2022/06/15 03:20:12;;;;;;;0.40;0.40;;;;;;;;;;1793017;78;26342;-56
2022/06/15 03:22:39;;;;;;;0.50;0.50;;;;;;;;;;1821714;77;26232;-52
2022/06/15 03:25:07;;;;;;;0.50;0.50;;;;;;;;;;1816853;78;26264;-54
2022/06/15 03:27:34;;;;;;;0.40;0.40;;;;;;;;;;1813860;79;26213;-56
2022/06/15 03:30:04;;;;;;;0.50;0.50;;;;;;;;;;1802358;78;26342;-54
2022/06/15 03:32:30;;;;;;;0.50;0.50;;;;;;;;;;1802295;77;26351;-54
2022/06/15 03:34:57;;;;;;;0.28;0.28;;;;;;;;;;1800297;78;26328;-51
2022/06/15 03:37:25;;;;;;;0.30;0.30;;;;;;;;;;1803508;78;26291;-56
2022/06/15 03:39:56;;;;;;;0.35;0.35;;;;;;;;;;1811563;77;26806;-52
2022/06/15 03:42:22;;;;;;;0.40;0.40;;;;;;;;;;1821439;77;26289;-56
2022/06/15 03:44:50;;;;;;;0.42;0.42;;;;;;;;;;1818423;78;26347;-57
2022/06/15 03:47:17;;;;;;;0.40;0.40;;;;;;;;;;1815850;78;26350;-55
2022/06/15 03:49:47;;;;;;;0.30;0.30;;;;;;;;;;1823069;77;26268;-55
2022/06/15 03:52:16;;;;;;;0.40;0.40;;;;;;;;;;1822002;78;26525;-53
2022/06/15 03:54:43;;;;;;;0.75;0.50;;;;;;;;;;1813755;78;26913;-53
2022/06/15 03:57:12;;;;;;;0.50;0.50;;;;;;;;;;1818779;78;26673;-55
2022/06/15 03:59:39;;;;;;;0.50;0.50;;;;;;;;;;1806799;78;26305;-55
2022/06/15 04:02:07;;;;;;;0.40;0.40;;;;;;;;;;1819057;78;26760;-57
2022/06/15 04:04:34;;;;;;;0.40;0.40;;;;;;;;;;1815283;79;26216;-54
2022/06/15 04:07:02;;;;;;;0.30;0.30;;;;;;;;;;1806238;78;26318;-55
2022/06/15 04:09:29;;;;;;;0.40;0.40;;;;;;;;;;1820658;78;26703;-54
2022/06/15 04:11:59;;;;;;;0.50;0.50;;;;;;;;;;1815827;77;26347;-56
2022/06/15 04:14:27;;;;;;;0.50;0.50;;;;;;;;;;1819560;78;26761;-56
2022/06/15 04:16:54;;;;;;;0.40;0.40;;;;;;;;;;1826477;78;26287;-56
2022/06/15 04:19:22;;;;;;;0.40;0.40;;;;;;;;;;1821586;78;26228;-56
2022/06/15 04:21:49;;;;;;;0.40;0.40;;;;;;;;;;1811829;79;26558;-54
2022/06/15 04:24:17;;;;;;;0.45;0.45;;;;;;;;;;1806999;78;26346;-56
2022/06/15 04:26:45;;;;;;;0.30;0.30;;;;;;;;;;1815562;78;26825;-56
2022/06/15 04:29:13;;;;;;;0.72;0.72;;;;;;;;;;1816124;78;26209;-53
2022/06/15 04:31:41;;;;;;;0.40;0.40;;;;;;;;;;1806031;78;26280;-54
2022/06/15 04:34:09;;;;;;;0.30;0.30;;;;;;;;;;1806153;78;26256;-56
2022/06/15 04:36:37;;;;;;;0.50;0.50;;;;;;;;;;1800556;79;26228;-56
2022/06/15 04:39:06;;;;;;;0.50;0.50;;;;;;;;;;1811020;79;26746;-54
2022/06/15 04:41:36;;;;;;;0.50;0.50;;;;;;;;;;1813331;78;26785;-57
2022/06/15 04:44:05;;;;;;;0.60;0.60;;;;;;;;;;1797471;78;26232;-56
2022/06/15 04:46:33;;;;;;;0.40;0.40;;;;;;;;;;1800162;77;26291;-59
2022/06/15 04:49:00;;;;;;;0.30;0.30;;;;;;;;;;1804686;77;26365;-56
2022/06/15 04:51:29;;;;;;;0.30;0.30;;;;;;;;;;1807702;77;26293;-58
2022/06/15 04:53:59;;;;;;;0.50;0.50;;;;;;;;;;1799210;77;26350;-55
2022/06/15 04:56:27;;;;;;;0.40;0.40;;;;;;;;;;1789483;77;26827;-56
2022/06/15 04:58:55;;;;;;;0.50;0.50;;;;;;;;;;1813791;77;26330;-58
2022/06/15 05:01:22;;;;;;;0.35;0.35;;;;;;;;;;1821802;77;26257;-57
2022/06/15 05:03:50;;;;;;;0.50;0.50;;;;;;;;;;1808823;77;26861;-57
2022/06/15 05:06:21;;;;;;;0.95;0.47;;;;;;;;;;1800106;78;26731;-60
2022/06/15 05:08:49;;;;;;;0.50;0.50;;;;;;;;;;1801840;78;26272;-59
2022/06/15 05:11:16;;;;;;;1.27;0.45;;;;;;;;;;1816398;78;26342;-59
2022/06/15 05:13:43;;;;;;;0.62;0.50;;;;;;;;;;1816688;78;26320;-58
2022/06/15 05:16:11;;;;;;;0.42;0.42;;;;;;;;;;1818761;78;26213;-58
2022/06/15 05:18:38;;;;;;;0.40;0.40;;;;;;;;;;1816492;79;26295;-57
2022/06/15 05:21:06;;;;;;;0.50;0.50;;;;;;;;;;1815556;77;26253;-58
2022/06/15 05:23:33;;;;;;;0.50;0.50;;;;;;;;;;1817310;77;26684;-57
2022/06/15 05:26:01;;;;;;;1.60;0.57;;;;;;;;;;1833403;77;26830;-60
2022/06/15 05:28:29;;;;;;;0.50;0.50;;;;;;;;;;1812082;77;26270;-60
2022/06/15 05:31:04;;;;;;;0.60;0.60;;;;;;;;;;1832631;77;26271;-56
2022/06/15 05:33:32;;;;;;;0.68;0.68;;;;;;;;;;1824029;77;26726;-57
2022/06/15 05:36:07;;;;;;;1.35;0.50;;;;;;;;;;1813384;77;26689;-56
2022/06/15 05:38:35;;;;;;;0.50;0.50;;;;;;;;;;1803067;77;26727;-55
2022/06/15 05:41:03;;;;;;;0.55;0.55;;;;;;;;;;1823643;78;26817;-55
2022/06/15 05:43:33;;;;;;;0.50;0.50;;;;;;;;;;1822173;78;26275;-58
2022/06/15 05:46:02;;;;;;;1.05;0.60;;;;;;;;;;1816920;78;26279;-56
2022/06/15 05:48:29;;;;;;;1.27;0.55;;;;;;;;;;1832063;78;26272;-57
2022/06/15 05:50:57;;;;;;;0.60;0.60;;;;;;;;;;1823040;77;26325;-57
2022/06/15 05:53:24;;;;;;;0.75;0.50;;;;;;;;;;1838140;78;26265;-55
2022/06/15 05:55:51;;;;;;;0.50;0.50;;;;;;;;;;1841946;78;26377;-61
2022/06/15 05:58:18;;;;;;;0.60;0.60;;;;;;;;;;1826719;77;26250;-55
2022/06/15 06:00:46;;;;;;;0.50;0.50;;;;;;;;;;1852347;76;26276;-55
2022/06/15 06:03:13;;;;;;;2.45;0.93;;;;;;;;;;1827280;77;26252;-57
2022/06/15 06:05:40;;;;;;;0.53;0.50;;;;;;;;;;1832805;78;26350;-54
2022/06/15 06:08:08;;;;;;;0.40;0.40;;;;;;;;;;1823437;78;26347;-57
2022/06/15 06:10:35;;;;;;;0.60;0.60;;;;;;;;;;1824021;78;26233;-56
2022/06/15 06:13:02;;;;;;;1.20;0.50;;;;;;;;;;1822386;78;26265;-54
2022/06/15 06:15:31;;;;;;;1.12;0.50;;;;;;;;;;1824991;77;26275;-58
2022/06/15 06:18:01;;;;;;;0.70;0.37;;;;;;;;;;1837049;78;26827;-60
2022/06/15 06:20:28;;;;;;;0.70;0.62;;;;;;;;;;1838069;78;26402;-56
2022/06/15 06:22:55;;;;;;;0.40;0.40;;;;;;;;;;1844769;77;26723;-55
2022/06/15 06:25:22;;;;;;;1.20;0.50;;;;;;;;;;1819075;77;26764;-56
2022/06/15 06:27:50;;;;;;;0.40;0.40;;;;;;;;;;1814101;79;26811;-56
2022/06/15 06:30:21;;;;;;;0.65;0.50;;;;;;;;;;1814468;78;27249;-52
2022/06/15 06:32:46;;;;;;;0.95;0.50;;;;;;;;;;1808477;78;26351;-57
2022/06/15 06:35:14;;;;;;;0.57;0.50;;;;;;;;;;1804324;78;26231;-58
2022/06/15 06:37:41;;;;;;;0.50;0.50;;;;;;;;;;1802200;79;26699;-56
2022/06/15 06:40:10;;;;;;;1.17;0.42;;;;;;;;;;1820623;78;26271;-56
2022/06/15 06:42:37;;;;;;;0.53;0.53;;;;;;;;;;1816870;78;26209;-56
2022/06/15 06:45:05;;;;;;;0.47;0.47;;;;;;;;;;1828066;76;26279;-58
2022/06/15 06:47:33;;;;;;;1.20;0.57;;;;;;;;;;1848212;77;26296;-58
2022/06/15 06:50:00;;;;;;;0.55;0.55;;;;;;;;;;1836929;77;26271;-57
2022/06/15 06:52:27;;;;;;;0.50;0.50;;;;;;;;;;1795218;79;26409;-58
2022/06/15 06:54:55;;;;;;;0.40;0.40;;;;;;;;;;1845025;77;26335;-58
2022/06/15 06:57:22;;;;;;;0.40;0.40;;;;;;;;;;1838100;77;26761;-58
2022/06/15 06:59:49;;;;;;;0.40;0.40;;;;;;;;;;1842413;77;26328;-57
2022/06/15 07:02:17;;;;;;;0.82;0.60;;;;;;;;;;1844867;76;26226;-57
2022/06/15 07:04:44;;;;;;;0.60;0.60;;;;;;;;;;1778072;79;26907;-54
2022/06/15 07:07:11;;;;;;;0.40;0.40;;;;;;;;;;1826934;78;26238;-56
2022/06/15 07:09:38;;;;;;;0.62;0.50;;;;;;;;;;1825451;78;26259;-58
2022/06/15 07:12:06;;;;;;;0.50;0.50;;;;;;;;;;1835926;78;26330;-58
2022/06/15 07:14:34;;;;;;;0.50;0.50;;;;;;;;;;1803647;79;26545;-56
2022/06/15 07:17:01;;;;;;;0.55;0.50;;;;;;;;;;1822684;77;26284;-56
2022/06/15 07:19:28;;;;;;;0.40;0.40;;;;;;;;;;1823964;77;26282;-57
2022/06/15 07:21:55;;;;;;;0.57;0.57;;;;;;;;;;1822902;77;26254;-53
2022/06/15 07:24:23;;;;;;;0.50;0.50;;;;;;;;;;1801736;78;26347;-58
2022/06/15 07:26:50;;;;;;;0.60;0.60;;;;;;;;;;1829700;76;26272;-57
2022/06/15 07:29:19;;;;;;;0.53;0.50;;;;;;;;;;1811859;78;26388;-56
2022/06/15 07:31:48;;;;;;;0.50;0.50;;;;;;;;;;1802946;79;26284;-54
2022/06/15 07:34:15;;;;;;;0.50;0.50;;;;;;;;;;1805342;79;26738;-56
2022/06/15 07:36:46;;;;;;;0.40;0.40;;;;;;;;;;1808139;79;26941;-53
2022/06/15 07:39:13;;;;;;;0.50;0.50;;;;;;;;;;1807372;78;26422;-56
2022/06/15 07:41:40;;;;;;;0.50;0.50;;;;;;;;;;1807936;78;26776;-58
2022/06/15 07:44:07;;;;;;;0.30;0.30;;;;;;;;;;1809208;79;26299;-58
2022/06/15 07:46:35;;;;;;;0.50;0.50;;;;;;;;;;1807160;79;26233;-53
2022/06/15 07:51:52;;;;;;;0.42;0.42;;;;;;;;;;1807393;79;26351;-55
2022/06/15 07:54:20;;;;;;;0.60;0.60;;;;;;;;;;1808168;79;26325;-57
2022/06/15 07:56:48;;;;;;;0.40;0.40;;;;;;;;;;1808528;79;26257;-57
2022/06/15 07:59:15;;;;;;;0.50;0.50;;;;;;;;;;1810356;78;26268;-57
2022/06/15 08:01:43;;;;;;;0.30;0.30;;;;;;;;;;1809103;78;26294;-57
2022/06/15 08:04:11;;;;;;;0.40;0.40;;;;;;;;;;1813594;78;26660;-52
2022/06/15 08:06:41;;;;;;;1.85;0.50;;;;;;;;;;1811187;77;26346;-53
2022/06/15 08:09:09;;;;;;;0.50;0.50;;;;;;;;;;1801631;78;26750;-54
2022/06/15 08:11:37;;;;;;;0.50;0.50;;;;;;;;;;1804892;79;26256;-57
2022/06/15 08:14:05;;;;;;;0.40;0.40;;;;;;;;;;1811422;78;26231;-57
2022/06/15 08:16:33;;;;;;;0.42;0.42;;;;;;;;;;1816933;77;26726;-54
2022/06/15 08:19:01;;;;;;;0.40;0.40;;;;;;;;;;1784756;79;26290;-57
2022/06/15 08:21:30;;;;;;;0.50;0.50;;;;;;;;;;1782913;78;27612;-57
2022/06/15 08:23:58;;;;;;;1.12;0.65;;;;;;;;;;1835771;76;26738;-55
2022/06/15 08:26:27;;;;;;;0.50;0.50;;;;;;;;;;1856491;77;26268;-55
2022/06/15 08:28:56;;;;;;;0.60;0.60;;;;;;;;;;1870010;76;26318;-57
2022/06/15 08:31:24;;;;;;;0.50;0.50;;;;;;;;;;1822027;77;26307;-57
2022/06/15 08:33:51;;;;;;;0.40;0.40;;;;;;;;;;1835178;77;26259;-56
2022/06/15 08:36:19;;;;;;;0.55;0.55;;;;;;;;;;1840791;76;26296;-56
2022/06/15 08:38:47;;;;;;;0.50;0.50;;;;;;;;;;1843105;76;26275;-57
2022/06/15 08:41:24;;;;;;;0.47;0.47;;;;;;;;;;1823124;78;26214;-55
2022/06/15 08:43:57;;;;;;;0.40;0.40;;;;;;;;;;1814385;77;26278;-58
2022/06/15 08:46:28;;;;;;;0.40;0.40;;;;;;;;;;1835769;76;26290;-57
2022/06/15 08:49:06;;;;;;;0.40;0.40;;;;;;;;;;1797513;79;26678;-57
2022/06/15 08:51:35;;;;;;;0.45;0.45;;;;;;;;;;1832672;76;26258;-55
2022/06/15 08:54:04;;;;;;;0.47;0.47;;;;;;;;;;1838483;76;26877;-57
2022/06/15 08:56:35;;;;;;;0.42;0.42;;;;;;;;;;1824887;78;26661;-57
2022/06/15 08:59:10;;;;;;;0.50;0.50;;;;;;;;;;1827774;77;26232;-55
2022/06/15 09:01:42;;;;;;;0.40;0.40;;;;;;;;;;1834251;77;26339;-58
2022/06/15 09:04:20;;;;;;;0.40;0.40;;;;;;;;;;1819195;77;26337;-58
2022/06/15 09:06:52;;;;;;;0.35;0.35;;;;;;;;;;1828081;77;26378;-57
2022/06/15 09:09:23;;;;;;;0.47;0.47;;;;;;;;;;1824926;77;26734;-58
2022/06/15 09:14:56;;;;;;;0.50;0.50;;;;;;;;;;1833003;77;26311;-55
2022/06/15 09:17:24;;;;;;;0.40;0.40;;;;;;;;;;1808852;77;26255;-58
2022/06/15 09:19:52;;;;;;;0.60;0.60;;;;;;;;;;1839202;76;26921;-58
2022/06/15 09:22:21;;;;;;;0.37;0.37;;;;;;;;;;1834086;76;26690;-56
2022/06/15 09:24:50;;;;;;;0.50;0.50;;;;;;;;;;1825232;78;27549;-56
2022/06/15 09:27:22;;;;;;;0.30;0.30;;;;;;;;;;1754751;78;26445;-55
2022/06/15 09:29:50;;;;;;;0.30;0.30;;;;;;;;;;1766644;80;26891;-56
2022/06/15 09:32:22;;;;;;;0.50;0.50;;;;;;;;;;1765396;80;26797;-55
2022/06/15 09:34:51;;;;;;;0.40;0.40;;;;;;;;;;1775892;80;26349;-57
2022/06/15 09:37:20;;;;;;;0.75;0.30;;;;;;;;;;1746091;80;26302;-55
2022/06/15 09:39:48;;;;;;;0.40;0.40;;;;;;;;;;1766498;80;26342;-54
2022/06/15 09:42:20;;;;;;;0.40;0.40;;;;;;;;;;1771403;80;26766;-55
2022/06/15 09:45:05;;;;;;;0.65;0.20;;;;;;;;;;1772206;80;26283;-54
2022/06/15 09:47:46;;;;;;;0.40;0.40;;;;;;;;;;1765108;80;26240;-54
2022/06/15 09:50:31;;;;;;;0.40;0.40;;;;;;;;;;1774569;80;26707;-56
2022/06/15 09:53:03;;;;;;;0.50;0.50;;;;;;;;;;1747878;80;26393;-56
2022/06/15 09:55:32;;;;;;;0.40;0.40;;;;;;;;;;1758392;80;26652;-55
2022/06/15 09:57:59;;;;;;;0.40;0.40;;;;;;;;;;1760194;80;26288;-52
2022/06/15 10:00:27;;;;;;;0.40;0.40;;;;;;;;;;1763339;80;26772;-56
2022/06/15 10:02:56;;;;;;;0.30;0.30;;;;;;;;;;1768412;80;26376;-59
2022/06/15 10:05:25;;;;;;;0.40;0.40;;;;;;;;;;1743317;81;26279;-58
2022/06/15 10:07:53;;;;;;;0.50;0.50;;;;;;;;;;1765144;79;26323;-58
2022/06/15 10:10:34;;;;;;;0.40;0.40;;;;;;;;;;1783959;79;26227;-55
2022/06/15 10:13:06;;;;;;;0.40;0.40;;;;;;;;;;1766425;79;27664;-56
2022/06/15 10:15:34;;;;;;;0.33;0.33;;;;;;;;;;1753287;80;26279;-57
2022/06/15 10:18:16;;;;;;;0.40;0.40;;;;;;;;;;1778739;79;26352;-58
2022/06/15 10:20:45;;;;;;;0.65;0.45;;;;;;;;;;1757898;80;26864;-57
2022/06/15 10:23:23;;;;;;;0.62;0.50;;;;;;;;;;1757614;80;26283;-57
2022/06/15 10:25:54;;;;;;;0.40;0.40;;;;;;;;;;1763445;78;26772;-56
2022/06/15 10:28:23;;;;;;;0.40;0.40;;;;;;;;;;1820328;76;26290;-54
2022/06/15 10:30:55;;;;;;;0.50;0.45;;;;;;;;;;1807837;78;27362;-57
2022/06/15 10:33:23;;;;;;;0.47;0.47;;;;;;;;;;1810424;78;26634;-56
2022/06/15 10:35:59;;;;;;;0.30;0.30;;;;;;;;;;1798550;78;26293;-54
2022/06/15 10:38:24;;;;;;;0.57;0.57;;;;;;;;;;1792145;78;26314;-58
2022/06/15 10:40:54;;;;;;;0.40;0.40;;;;;;;;;;1800724;78;27301;-56
2022/06/15 10:43:23;;;;;;;0.30;0.30;;;;;;;;;;1784908;79;26285;-55
2022/06/15 10:45:54;;;;;;;0.40;0.40;;;;;;;;;;1818018;77;26326;-56
2022/06/15 10:48:26;;;;;;;0.70;0.35;;;;;;;;;;1811375;78;26286;-57
2022/06/15 10:51:04;;;;;;;0.40;0.40;;;;;;;;;;1816816;77;27399;-56
2022/06/15 10:53:33;;;;;;;0.75;0.50;;;;;;;;;;1805312;79;26270;-56
2022/06/15 11:04:26;;;;;;;0.40;0.40;;;;;;;;;;1785772;78;26318;-53
2022/06/15 11:07:01;;;;;;;0.40;0.40;;;;;;;;;;1807879;77;26323;-56
2022/06/15 11:09:32;;;;;;;0.40;0.40;;;;;;;;;;1795521;77;26276;-57
2022/06/15 11:12:01;;;;;;;0.50;0.50;;;;;;;;;;1817987;77;26276;-55
2022/06/15 11:14:30;;;;;;;0.42;0.40;;;;;;;;;;1814709;77;26264;-58
2022/06/15 11:19:57;;;;;;;0.50;0.50;;;;;;;;;;1787643;77;26379;-55
2022/06/15 11:22:26;;;;;;;0.50;0.50;;;;;;;;;;1805270;78;26291;-56
2022/06/15 11:24:55;;;;;;;0.40;0.40;;;;;;;;;;1807806;78;26240;-58
2022/06/15 11:27:26;;;;;;;0.47;0.47;;;;;;;;;;1787527;78;26312;-57
2022/06/15 11:30:08;;;;;;;0.40;0.40;;;;;;;;;;1813548;78;26371;-56
2022/06/15 11:32:53;;;;;;;0.42;0.42;;;;;;;;;;1820172;77;26245;-56
2022/06/15 11:35:22;;;;;;;0.50;0.50;;;;;;;;;;1814262;77;26724;-57
2022/06/15 11:38:08;;;;;;;0.50;0.50;;;;;;;;;;1805951;78;26261;-56
2022/06/15 11:40:43;;;;;;;0.50;0.50;;;;;;;;;;1815457;77;26312;-57
2022/06/15 11:43:12;;;;;;;0.50;0.50;;;;;;;;;;1802308;77;26424;-56
2022/06/15 11:45:56;;;;;;;0.55;0.40;;;;;;;;;;1805713;78;26325;-55
2022/06/15 11:48:41;;;;;;;0.70;0.57;;;;;;;;;;1807219;78;26763;-57
2022/06/15 11:51:18;;;;;;;0.40;0.40;;;;;;;;;;1817777;77;26272;-58
2022/06/15 11:53:59;;;;;;;0.50;0.50;;;;;;;;;;1811947;78;26614;-53
2022/06/15 11:56:28;;;;;;;0.50;0.50;;;;;;;;;;1812740;77;26583;-57
2022/06/15 11:59:12;;;;;;;0.30;0.30;;;;;;;;;;1802893;78;26702;-55
2022/06/15 12:01:43;;;;;;;0.60;0.60;;;;;;;;;;1814832;78;26718;-56
2022/06/15 12:04:29;;;;;;;0.40;0.40;;;;;;;;;;1821843;77;26762;-54
2022/06/15 12:06:58;;;;;;;0.50;0.50;;;;;;;;;;1802760;77;26822;-55
2022/06/15 12:09:26;;;;;;;0.42;0.42;;;;;;;;;;1818263;79;26290;-57
2022/06/15 12:14:54;;;;;;;0.53;0.53;;;;;;;;;;1811427;77;26366;-53
2022/06/15 12:17:23;;;;;;;1.55;0.60;;;;;;;;;;1802603;77;26271;-52
2022/06/15 12:19:52;;;;;;;0.57;0.57;;;;;;;;;;1821800;77;26352;-57
2022/06/15 12:22:21;;;;;;;0.47;0.47;;;;;;;;;;1822089;77;26252;-57
2022/06/15 12:24:50;;;;;;;0.50;0.50;;;;;;;;;;1819535;78;26303;-54
2022/06/15 12:27:39;;;;;;;0.70;0.70;;;;;;;;;;1812640;78;26300;-55
2022/06/15 12:30:19;;;;;;;0.50;0.50;;;;;;;;;;1803052;78;26379;-53
2022/06/15 12:32:48;;;;;;;0.78;0.70;;;;;;;;;;1802937;78;26280;-56
2022/06/15 12:35:21;;;;;;;0.60;0.60;;;;;;;;;;1790567;78;26274;-56
2022/06/15 12:37:55;;;;;;;0.50;0.50;;;;;;;;;;1786041;78;26302;-57
2022/06/15 12:40:23;;;;;;;0.50;0.50;;;;;;;;;;1814208;78;26349;-56
2022/06/15 12:42:52;;;;;;;0.50;0.50;;;;;;;;;;1790966;78;26269;-57
2022/06/15 12:45:22;;;;;;;0.62;0.62;;;;;;;;;;1810388;77;26279;-54
2022/06/15 12:47:50;;;;;;;0.60;0.60;;;;;;;;;;1808496;78;26692;-55
2022/06/15 12:50:19;;;;;;;0.57;0.57;;;;;;;;;;1786801;78;26701;-55
2022/06/15 12:52:55;;;;;;;0.60;0.60;;;;;;;;;;1806911;78;26747;-55
2022/06/15 12:55:41;;;;;;;0.75;0.60;;;;;;;;;;1818374;77;26736;-54
2022/06/15 12:58:10;;;;;;;0.50;0.50;;;;;;;;;;1803304;77;26684;-53
2022/06/15 13:00:39;;;;;;;0.45;0.45;;;;;;;;;;1799681;78;26308;-58
2022/06/15 13:03:16;;;;;;;1.45;0.50;;;;;;;;;;1802288;77;26268;-58
2022/06/15 13:05:44;;;;;;;0.60;0.60;;;;;;;;;;1786714;78;26338;-59
2022/06/15 13:08:20;;;;;;;0.53;0.53;;;;;;;;;;1809338;77;26323;-55
2022/06/15 13:10:55;;;;;;;0.50;0.50;;;;;;;;;;1805089;78;26413;-52
2022/06/15 13:13:24;;;;;;;0.60;0.60;;;;;;;;;;1811217;78;26319;-57
2022/06/15 13:15:53;;;;;;;0.60;0.60;;;;;;;;;;1807616;77;26275;-55
2022/06/15 13:18:22;;;;;;;0.35;0.35;;;;;;;;;;1824544;78;26296;-56
2022/06/15 13:20:53;;;;;;;0.50;0.50;;;;;;;;;;1804969;78;26280;-56
2022/06/15 13:23:24;;;;;;;0.60;0.60;;;;;;;;;;1817461;78;26288;-56
2022/06/15 13:25:53;;;;;;;0.50;0.50;;;;;;;;;;1799900;78;26334;-57
2022/06/15 13:28:22;;;;;;;0.65;0.65;;;;;;;;;;1794881;78;26293;-57
2022/06/15 13:30:52;;;;;;;0.68;0.68;;;;;;;;;;1797675;78;26300;-58
2022/06/15 13:33:20;;;;;;;0.50;0.50;;;;;;;;;;1805993;78;26295;-56
2022/06/15 13:35:48;;;;;;;0.55;0.55;;;;;;;;;;1821625;77;26337;-53
2022/06/15 13:38:17;;;;;;;0.50;0.50;;;;;;;;;;1785912;78;26305;-57
2022/06/15 13:40:55;;;;;;;0.50;0.50;;;;;;;;;;1795283;78;26878;-60
2022/06/15 13:43:24;;;;;;;0.47;0.47;;;;;;;;;;1802249;78;26319;-57
2022/06/15 13:45:53;;;;;;;0.50;0.50;;;;;;;;;;1806152;78;26335;-53
2022/06/15 13:48:40;;;;;;;0.78;0.70;;;;;;;;;;1802863;79;26277;-57
2022/06/15 13:51:09;;;;;;;0.50;0.50;;;;;;;;;;1801359;78;26280;-57
2022/06/15 13:53:40;;;;;;;0.60;0.60;;;;;;;;;;1802581;79;26316;-56
2022/06/15 13:56:26;;;;;;;1.45;0.60;;;;;;;;;;1799039;78;26363;-55
2022/06/15 13:59:01;;;;;;;0.60;0.60;;;;;;;;;;1804286;78;26690;-55
2022/06/15 14:01:30;;;;;;;0.50;0.50;;;;;;;;;;1801485;78;26335;-58
2022/06/15 14:04:08;;;;;;;0.50;0.50;;;;;;;;;;1799018;78;26333;-58
2022/06/15 14:06:40;;;;;;;0.50;0.50;;;;;;;;;;1801240;78;26324;-54
2022/06/15 14:09:18;;;;;;;0.50;0.50;;;;;;;;;;1798919;79;26343;-57
2022/06/15 14:11:52;;;;;;;0.60;0.60;;;;;;;;;;1804322;77;26400;-57
2022/06/15 14:14:30;;;;;;;0.50;0.50;;;;;;;;;;1784620;78;26409;-58
2022/06/15 14:17:16;;;;;;;0.50;0.50;;;;;;;;;;1818422;78;26324;-57
2022/06/15 14:19:45;;;;;;;1.27;0.60;;;;;;;;;;1788958;78;26364;-54
2022/06/15 14:22:13;;;;;;;0.40;0.40;;;;;;;;;;1797537;78;26205;-57
2022/06/15 14:24:41;;;;;;;0.50;0.50;;;;;;;;;;1800759;79;26336;-56
2022/06/15 14:27:10;;;;;;;0.55;0.45;;;;;;;;;;1807395;78;26805;-54
2022/06/15 14:29:45;;;;;;;0.78;0.50;;;;;;;;;;1800960;78;26337;-56
2022/06/15 14:32:23;;;;;;;1.12;0.47;;;;;;;;;;1795039;78;26300;-58
2022/06/15 14:34:51;;;;;;;0.50;0.50;;;;;;;;;;1805603;79;27390;-57
2022/06/15 14:37:20;;;;;;;0.70;0.50;;;;;;;;;;1803238;78;26253;-54
2022/06/15 14:39:49;;;;;;;0.50;0.50;;;;;;;;;;1783381;79;26350;-56
2022/06/15 14:42:17;;;;;;;0.60;0.60;;;;;;;;;;1804951;78;26311;-56
2022/06/15 14:44:45;;;;;;;0.90;0.60;;;;;;;;;;1794147;78;26337;-57
2022/06/15 14:47:15;;;;;;;0.60;0.60;;;;;;;;;;1823944;78;26664;-54
2022/06/15 14:49:44;;;;;;;0.50;0.50;;;;;;;;;;1789969;78;26310;-58
2022/06/15 14:52:12;;;;;;;0.50;0.50;;;;;;;;;;1802975;78;26279;-58
2022/06/15 14:54:40;;;;;;;0.50;0.50;;;;;;;;;;1792573;78;26288;-56
2022/06/15 14:57:08;;;;;;;0.50;0.50;;;;;;;;;;1797353;78;26666;-58
2022/06/15 14:59:49;;;;;;;0.88;0.50;;;;;;;;;;1803085;78;26398;-57
2022/06/15 15:02:16;;;;;;;0.60;0.60;;;;;;;;;;1810398;78;26193;-56
2022/06/15 15:04:45;;;;;;;0.50;0.50;;;;;;;;;;1797719;79;26249;-57
2022/06/15 15:10:36;;;;;;;0.50;0.50;;;;;;;;;;1799603;78;26821;-54
2022/06/15 15:13:14;;;;;;;0.50;0.50;;;;;;;;;;1793206;78;26737;-56
2022/06/15 15:15:43;;;;;;;0.50;0.50;;;;;;;;;;1802896;78;27254;-56
2022/06/15 15:18:15;;;;;;;1.30;0.57;;;;;;;;;;1819124;78;26269;-57
2022/06/15 15:20:44;;;;;;;0.50;0.50;;;;;;;;;;1805204;78;26310;-57
2022/06/15 15:23:11;;;;;;;0.50;0.50;;;;;;;;;;1803503;78;26251;-55